Portada
METAR-TAF:

METAR-TAF

Aeropuertos :

Latina, Italia

latitud: 41-33N, longitud: 012-54E, altitud: 25 m

Observación

El informe se hizo hace 7 horas y 30 minutos, a las 17:55 UTC
Viento 4 kt del oeste-noroeste
Temperatura 10°C
Humedad 53%
Presión 1012 hPa
Visibilidad 10 km o más
sin nubes por debajo de 1500 m y sin presencia de cumulonimbus.

METAR: LIRL 021755Z 30004KT CAVOK 10/01 Q1012 RMK FEW FEW200 MON LIB NC VIS MIN 9999 WIND THR12 31003KT WIND THR30 /////KT BLU

Hora: 03:25 (01:25 UTC)

Pronóstico

El informe se hizo hace 11 horas y 25 minutos, a las 14:00 UTC
Pronóstico válido del 02 a las 15 UTC al 02 a las 24 UTC
Viento 6 kt del oeste-suroeste
Visibilidad 10 km o más
Escasas nubes a una altura de 2000 ft
Nubes dispersas a una altura de 4000 ft

TAF: LIRL 021400Z 0215/0224 24006KT 9999 FEW020 SCT040

Observaciones y pronósticos meteorológicos de más de 4000 aeropuertos (mensajes METAR y TAF).

Los puntos amarillos y rojos representan las estaciones disponibles.

Ponga el ratón en el punto deseado para ver el nombre de la estación.

Haga clic para ver las observaciones y los pronósticos meteorológicos.

Para cambiar el mapa : haga clic en los botones verdes con una cruz de color negro para hacer un zoom, en el botón verde con un guión para alejar o en las flechas verdes para mapas adyacentes.


METAR-TAF: